Time;durP1;ratioP1;P1;durP2;ratioP2;P2;SDS_P1;SDS_P2;PMS_P1;PMS_P2;Temp;Humidity;BMP_temperature;BMP_pressure;BME280_temperature;BME280_humidity;BME280_pressure;Samples;Min_cycle;Max_cycle;Signal;HPM_P1;HPM_P2
2023/06/11 00:01:26;;;;;;;0.40;0.40;;;;;;;;;;5055647;28;20212;-90
2023/06/11 00:03:53;;;;;;;0.30;0.30;;;;;;;;;;5054886;28;20223;-90
2023/06/11 00:06:23;;;;;;;0.30;0.30;;;;;;;;;;5054916;28;20229;-90
2023/06/11 00:08:51;;;;;;;0.30;0.30;;;;;;;;;;5055472;28;20183;-91
2023/06/11 00:11:17;;;;;;;0.30;0.30;;;;;;;;;;5060919;28;20246;-91
2023/06/11 00:13:43;;;;;;;0.40;0.40;;;;;;;;;;5072156;28;20199;-90
2023/06/11 00:16:11;;;;;;;0.30;0.30;;;;;;;;;;5073238;28;20179;-90
2023/06/11 00:18:40;;;;;;;0.30;0.30;;;;;;;;;;5059778;28;20179;-89
2023/06/11 00:21:06;;;;;;;0.40;0.40;;;;;;;;;;5053955;28;20184;-90
2023/06/11 00:23:34;;;;;;;0.30;0.30;;;;;;;;;;5053740;28;20282;-90
2023/06/11 00:26:00;;;;;;;0.30;0.30;;;;;;;;;;5054000;28;20227;-90
2023/06/11 00:28:26;;;;;;;0.33;0.33;;;;;;;;;;5053953;28;20246;-90
2023/06/11 00:30:52;;;;;;;0.30;0.30;;;;;;;;;;5053903;28;20186;-90
2023/06/11 00:33:18;;;;;;;0.40;0.40;;;;;;;;;;5053383;28;20203;-90
2023/06/11 00:35:44;;;;;;;0.40;0.40;;;;;;;;;;5053750;28;20638;-91
2023/06/11 00:38:10;;;;;;;0.30;0.30;;;;;;;;;;5053743;28;20209;-91
2023/06/11 00:40:36;;;;;;;0.30;0.30;;;;;;;;;;5053721;28;20659;-90
2023/06/11 00:43:03;;;;;;;0.30;0.30;;;;;;;;;;5053073;28;20294;-90
2023/06/11 00:45:32;;;;;;;0.30;0.30;;;;;;;;;;5053456;28;20206;-90
2023/06/11 00:47:58;;;;;;;0.30;0.30;;;;;;;;;;5053456;28;20676;-90
2023/06/11 00:50:24;;;;;;;0.30;0.30;;;;;;;;;;5053596;28;20265;-90
2023/06/11 00:52:50;;;;;;;0.30;0.30;;;;;;;;;;5052811;28;20736;-90
2023/06/11 00:55:17;;;;;;;0.30;0.30;;;;;;;;;;5053520;28;20289;-90
2023/06/11 00:57:43;;;;;;;0.30;0.30;;;;;;;;;;5053385;28;20197;-90
2023/06/11 01:00:12;;;;;;;0.30;0.30;;;;;;;;;;5053391;28;20709;-91
2023/06/11 01:02:43;;;;;;;0.40;0.40;;;;;;;;;;5052836;28;20248;-90
2023/06/11 01:05:09;;;;;;;0.40;0.40;;;;;;;;;;5053088;28;20226;-90
2023/06/11 01:07:36;;;;;;;0.30;0.30;;;;;;;;;;5053371;28;20190;-90
2023/06/11 01:10:03;;;;;;;0.30;0.30;;;;;;;;;;5053230;28;20171;-91
2023/06/11 01:12:30;;;;;;;0.30;0.30;;;;;;;;;;5052572;28;20194;-90
2023/06/11 01:14:56;;;;;;;0.30;0.30;;;;;;;;;;5052829;28;20175;-90
2023/06/11 01:17:40;;;;;;;0.40;0.40;;;;;;;;;;5052958;28;20182;-90
2023/06/11 01:20:25;;;;;;;0.40;0.40;;;;;;;;;;5052969;28;20266;-90
2023/06/11 01:22:51;;;;;;;0.40;0.40;;;;;;;;;;5052575;28;20205;-90
2023/06/11 01:25:37;;;;;;;0.30;0.30;;;;;;;;;;5052641;28;20209;-92
2023/06/11 01:28:10;;;;;;;0.33;0.33;;;;;;;;;;5053069;28;20181;-90
2023/06/11 01:30:37;;;;;;;0.30;0.30;;;;;;;;;;5052799;28;20186;-91
2023/06/11 01:33:05;;;;;;;0.30;0.30;;;;;;;;;;5052281;28;20202;-90
2023/06/11 01:35:33;;;;;;;0.40;0.40;;;;;;;;;;5056519;28;20175;-90
2023/06/11 01:37:59;;;;;;;0.30;0.30;;;;;;;;;;5073594;28;20639;-92
2023/06/11 01:40:26;;;;;;;0.30;0.30;;;;;;;;;;5060058;28;20179;-90
2023/06/11 01:42:52;;;;;;;0.40;0.40;;;;;;;;;;5053707;28;20202;-90
2023/06/11 01:45:19;;;;;;;0.30;0.30;;;;;;;;;;5053405;28;20227;-90
2023/06/11 01:47:45;;;;;;;0.30;0.30;;;;;;;;;;5054037;28;20202;-90
2023/06/11 01:50:12;;;;;;;0.30;0.30;;;;;;;;;;5052663;28;20201;-90
2023/06/11 01:52:38;;;;;;;0.30;0.30;;;;;;;;;;5052341;28;20223;-90
2023/06/11 01:55:06;;;;;;;0.33;0.33;;;;;;;;;;5059072;28;20170;-91
2023/06/11 01:57:32;;;;;;;0.40;0.40;;;;;;;;;;5059154;28;20309;-90
2023/06/11 01:59:58;;;;;;;0.30;0.30;;;;;;;;;;5059474;28;20210;-91
2023/06/11 02:02:24;;;;;;;0.40;0.40;;;;;;;;;;5058446;28;20198;-91
2023/06/11 02:04:50;;;;;;;0.37;0.37;;;;;;;;;;5059109;28;20277;-90
2023/06/11 02:07:16;;;;;;;0.33;0.33;;;;;;;;;;5058693;28;20305;-90
2023/06/11 02:09:42;;;;;;;0.40;0.40;;;;;;;;;;5059357;28;20178;-90
2023/06/11 02:12:08;;;;;;;0.30;0.30;;;;;;;;;;5058606;28;20190;-90
2023/06/11 02:14:34;;;;;;;0.30;0.30;;;;;;;;;;5059020;28;20216;-90
2023/06/11 02:17:00;;;;;;;0.30;0.30;;;;;;;;;;5058984;28;20171;-90
2023/06/11 02:19:27;;;;;;;0.30;0.30;;;;;;;;;;5059559;28;20189;-90
2023/06/11 02:21:53;;;;;;;0.40;0.40;;;;;;;;;;5058710;28;20179;-90
2023/06/11 02:24:19;;;;;;;0.40;0.40;;;;;;;;;;5058607;28;20183;-90
2023/06/11 02:26:45;;;;;;;0.30;0.30;;;;;;;;;;5058967;28;20213;-90
2023/06/11 02:29:10;;;;;;;0.30;0.30;;;;;;;;;;5059131;28;20726;-90
2023/06/11 02:31:36;;;;;;;0.40;0.40;;;;;;;;;;5058677;28;20252;-90
2023/06/11 02:34:02;;;;;;;0.30;0.30;;;;;;;;;;5058274;28;20218;-90
2023/06/11 02:36:28;;;;;;;0.40;0.40;;;;;;;;;;5058752;28;20179;-90
2023/06/11 02:38:54;;;;;;;0.30;0.30;;;;;;;;;;5061321;28;20666;-90
2023/06/11 02:41:20;;;;;;;0.30;0.30;;;;;;;;;;5061198;28;20171;-90
2023/06/11 02:43:46;;;;;;;0.30;0.30;;;;;;;;;;5058845;28;20260;-90
2023/06/11 02:46:12;;;;;;;0.30;0.30;;;;;;;;;;5058640;28;20207;-91
2023/06/11 02:48:38;;;;;;;0.40;0.40;;;;;;;;;;5058564;28;20205;-90
2023/06/11 02:51:04;;;;;;;0.30;0.30;;;;;;;;;;5058617;28;20634;-90
2023/06/11 02:53:30;;;;;;;0.40;0.40;;;;;;;;;;5058408;28;20294;-90
2023/06/11 02:55:56;;;;;;;0.30;0.30;;;;;;;;;;5058755;28;20283;-90
2023/06/11 02:58:22;;;;;;;0.33;0.33;;;;;;;;;;5058687;28;20185;-90
2023/06/11 03:00:48;;;;;;;0.47;0.47;;;;;;;;;;5059398;28;20211;-90
2023/06/11 03:03:14;;;;;;;0.40;0.40;;;;;;;;;;5058237;28;20222;-90
2023/06/11 03:05:40;;;;;;;0.30;0.30;;;;;;;;;;5054807;28;20210;-90
2023/06/11 03:08:09;;;;;;;0.30;0.30;;;;;;;;;;5055453;28;20190;-90
2023/06/11 03:10:35;;;;;;;0.30;0.30;;;;;;;;;;5055101;28;20662;-90
2023/06/11 03:13:02;;;;;;;0.40;0.40;;;;;;;;;;5054617;28;20226;-91
2023/06/11 03:15:28;;;;;;;0.47;0.47;;;;;;;;;;5054724;28;20175;-91
2023/06/11 03:17:54;;;;;;;0.30;0.30;;;;;;;;;;5054605;28;20642;-92
2023/06/11 03:20:20;;;;;;;0.40;0.40;;;;;;;;;;5054781;28;20179;-91
2023/06/11 03:22:46;;;;;;;0.40;0.40;;;;;;;;;;5054554;28;20210;-90
2023/06/11 03:25:12;;;;;;;0.30;0.30;;;;;;;;;;5054939;28;20183;-90
2023/06/11 03:27:38;;;;;;;0.33;0.33;;;;;;;;;;5054856;28;20183;-89
2023/06/11 03:30:05;;;;;;;0.30;0.30;;;;;;;;;;5055046;28;20175;-90
2023/06/11 03:32:31;;;;;;;0.30;0.30;;;;;;;;;;5054455;28;20194;-90
2023/06/11 03:34:57;;;;;;;0.30;0.30;;;;;;;;;;5055117;28;20669;-90
2023/06/11 03:37:23;;;;;;;0.30;0.30;;;;;;;;;;5055333;28;20172;-90
2023/06/11 03:39:49;;;;;;;0.40;0.40;;;;;;;;;;5054788;28;20535;-90
2023/06/11 03:42:15;;;;;;;0.30;0.30;;;;;;;;;;5054663;28;20710;-90
2023/06/11 03:44:41;;;;;;;0.30;0.30;;;;;;;;;;5054626;28;20179;-90
2023/06/11 03:47:07;;;;;;;0.30;0.30;;;;;;;;;;5054553;28;20238;-90
2023/06/11 03:49:33;;;;;;;0.30;0.30;;;;;;;;;;5054992;28;20179;-90
2023/06/11 03:51:59;;;;;;;0.50;0.50;;;;;;;;;;5054796;28;20575;-90
2023/06/11 03:54:25;;;;;;;0.40;0.40;;;;;;;;;;5054419;28;20729;-90
2023/06/11 03:56:51;;;;;;;0.40;0.40;;;;;;;;;;5054578;28;20217;-90
2023/06/11 03:59:17;;;;;;;0.40;0.40;;;;;;;;;;5055070;28;20179;-90
2023/06/11 04:01:44;;;;;;;0.40;0.40;;;;;;;;;;5054230;28;20237;-91
2023/06/11 04:04:10;;;;;;;0.27;0.27;;;;;;;;;;5054634;28;20745;-89
2023/06/11 04:06:37;;;;;;;0.30;0.30;;;;;;;;;;5054718;28;20214;-89
2023/06/11 04:09:04;;;;;;;0.50;0.50;;;;;;;;;;5054368;28;20175;-88
2023/06/11 04:11:30;;;;;;;0.30;0.30;;;;;;;;;;5054178;28;20236;-88
2023/06/11 04:13:56;;;;;;;0.40;0.40;;;;;;;;;;5053784;28;20194;-88
2023/06/11 04:16:21;;;;;;;0.30;0.30;;;;;;;;;;5053662;28;20646;-89
2023/06/11 04:18:48;;;;;;;0.40;0.40;;;;;;;;;;5054338;28;20175;-89
2023/06/11 04:21:14;;;;;;;0.30;0.30;;;;;;;;;;5053917;28;20183;-88
2023/06/11 04:23:40;;;;;;;0.30;0.30;;;;;;;;;;5053802;28;20240;-88
2023/06/11 04:26:07;;;;;;;0.40;0.40;;;;;;;;;;5054134;28;20213;-89
2023/06/11 04:28:35;;;;;;;0.30;0.30;;;;;;;;;;5053988;28;20175;-90
2023/06/11 04:31:01;;;;;;;0.30;0.30;;;;;;;;;;5054073;28;20603;-88
2023/06/11 04:33:32;;;;;;;0.30;0.30;;;;;;;;;;5065254;28;20201;-88
2023/06/11 04:36:04;;;;;;;0.30;0.30;;;;;;;;;;5070811;28;20179;-90
2023/06/11 04:38:31;;;;;;;0.40;0.40;;;;;;;;;;5065090;28;20183;-89
2023/06/11 04:40:58;;;;;;;0.40;0.40;;;;;;;;;;5056675;28;20175;-88
2023/06/11 04:43:25;;;;;;;0.40;0.40;;;;;;;;;;5053520;28;20665;-89
2023/06/11 04:45:55;;;;;;;0.30;0.30;;;;;;;;;;5053934;28;20213;-89
2023/06/11 04:48:27;;;;;;;0.30;0.30;;;;;;;;;;5053961;28;20171;-89
2023/06/11 04:50:53;;;;;;;0.30;0.30;;;;;;;;;;5053651;28;20179;-88
2023/06/11 04:53:24;;;;;;;0.30;0.30;;;;;;;;;;5053357;28;20191;-90
2023/06/11 04:55:51;;;;;;;0.40;0.40;;;;;;;;;;5053460;28;20175;-90
2023/06/11 04:58:21;;;;;;;0.40;0.40;;;;;;;;;;5056859;28;20187;-89
2023/06/11 05:00:50;;;;;;;0.30;0.30;;;;;;;;;;5056629;28;20179;-89
2023/06/11 05:03:16;;;;;;;0.30;0.30;;;;;;;;;;5053544;28;20202;-88
2023/06/11 05:05:51;;;;;;;0.30;0.30;;;;;;;;;;5076944;28;20219;-91
2023/06/11 05:08:24;;;;;;;0.30;0.30;;;;;;;;;;5078115;28;20159;-93
2023/06/11 05:10:53;;;;;;;0.30;0.30;;;;;;;;;;5078207;28;20190;-92
2023/06/11 05:13:24;;;;;;;0.40;0.40;;;;;;;;;;5077964;28;20195;-92
2023/06/11 05:15:58;;;;;;;0.30;0.30;;;;;;;;;;5078607;28;20236;-94
2023/06/11 05:18:27;;;;;;;0.40;0.40;;;;;;;;;;5078559;28;20167;-91
2023/06/11 05:20:53;;;;;;;0.30;0.30;;;;;;;;;;5077359;28;20175;-88
2023/06/11 05:23:27;;;;;;;0.40;0.40;;;;;;;;;;5060798;28;20195;-88
2023/06/11 05:25:53;;;;;;;0.30;0.30;;;;;;;;;;5054062;28;20700;-89
2023/06/11 05:28:19;;;;;;;0.30;0.30;;;;;;;;;;5053016;28;20265;-88
2023/06/11 05:30:45;;;;;;;0.30;0.30;;;;;;;;;;5053431;28;20391;-89
2023/06/11 05:33:14;;;;;;;0.40;0.40;;;;;;;;;;5052762;28;20241;-88
2023/06/11 05:35:41;;;;;;;0.30;0.30;;;;;;;;;;5052714;28;20769;-88
2023/06/11 05:38:07;;;;;;;0.40;0.40;;;;;;;;;;5055520;28;20185;-89
2023/06/11 05:40:34;;;;;;;0.30;0.30;;;;;;;;;;5053378;28;20183;-88
2023/06/11 05:43:00;;;;;;;0.30;0.30;;;;;;;;;;5052564;28;20194;-88
2023/06/11 05:45:26;;;;;;;0.30;0.30;;;;;;;;;;5052802;28;20255;-88
2023/06/11 05:47:52;;;;;;;0.40;0.40;;;;;;;;;;5052308;28;20200;-88
2023/06/11 05:50:18;;;;;;;0.30;0.30;;;;;;;;;;5052645;28;20602;-88
2023/06/11 05:52:45;;;;;;;0.30;0.30;;;;;;;;;;5055560;28;20202;-89
2023/06/11 05:55:11;;;;;;;0.40;0.40;;;;;;;;;;5054818;28;20646;-89
2023/06/11 05:57:37;;;;;;;0.30;0.30;;;;;;;;;;5062630;28;20194;-88
2023/06/11 06:00:06;;;;;;;0.30;0.30;;;;;;;;;;5061403;28;20171;-86
2023/06/11 06:02:32;;;;;;;0.30;0.30;;;;;;;;;;5052234;28;20282;-87
2023/06/11 06:04:58;;;;;;;0.30;0.30;;;;;;;;;;5052241;28;20222;-87
2023/06/11 06:07:24;;;;;;;0.30;0.30;;;;;;;;;;5052331;28;20218;-89
2023/06/11 06:09:50;;;;;;;0.30;0.30;;;;;;;;;;5052375;28;20179;-88
2023/06/11 06:12:16;;;;;;;0.30;0.30;;;;;;;;;;5051978;28;20203;-87
2023/06/11 06:14:42;;;;;;;0.40;0.40;;;;;;;;;;5052315;28;20597;-88
2023/06/11 06:17:08;;;;;;;0.40;0.40;;;;;;;;;;5034721;28;20491;-89
2023/06/11 06:19:34;;;;;;;0.30;0.30;;;;;;;;;;5052539;28;20186;-90
2023/06/11 06:22:00;;;;;;;0.30;0.30;;;;;;;;;;5051912;28;20179;-93
2023/06/11 06:24:26;;;;;;;0.30;0.30;;;;;;;;;;5052168;28;20171;-89
2023/06/11 06:26:56;;;;;;;0.30;0.30;;;;;;;;;;5052187;28;20215;-88
2023/06/11 06:29:22;;;;;;;0.30;0.30;;;;;;;;;;5052420;28;20182;-89
2023/06/11 06:31:48;;;;;;;0.30;0.30;;;;;;;;;;5052167;28;20261;-89
2023/06/11 06:34:14;;;;;;;0.33;0.33;;;;;;;;;;5051732;28;20227;-88
2023/06/11 06:36:40;;;;;;;0.30;0.30;;;;;;;;;;5052290;28;20266;-88
2023/06/11 06:39:06;;;;;;;0.27;0.27;;;;;;;;;;5052353;28;20581;-88
2023/06/11 06:41:32;;;;;;;0.30;0.30;;;;;;;;;;5055774;28;20230;-89
2023/06/11 06:43:58;;;;;;;0.30;0.30;;;;;;;;;;5055080;28;20218;-88
2023/06/11 06:46:24;;;;;;;0.37;0.37;;;;;;;;;;5055765;28;20211;-90
2023/06/11 06:48:51;;;;;;;0.30;0.30;;;;;;;;;;5055911;28;20582;-89
2023/06/11 06:51:19;;;;;;;0.30;0.30;;;;;;;;;;5054700;28;20182;-88
2023/06/11 06:53:47;;;;;;;0.30;0.30;;;;;;;;;;5054904;28;20678;-89
2023/06/11 06:56:13;;;;;;;0.30;0.30;;;;;;;;;;5055477;28;20187;-89
2023/06/11 06:58:39;;;;;;;0.30;0.30;;;;;;;;;;5056293;28;20236;-87
2023/06/11 07:01:05;;;;;;;0.40;0.40;;;;;;;;;;5055635;28;20176;-88
2023/06/11 07:03:33;;;;;;;0.30;0.30;;;;;;;;;;5055229;28;20197;-88
2023/06/11 07:05:59;;;;;;;0.30;0.30;;;;;;;;;;5055137;28;20249;-87
2023/06/11 07:08:26;;;;;;;0.40;0.40;;;;;;;;;;5055194;28;20199;-87
2023/06/11 07:10:53;;;;;;;0.30;0.30;;;;;;;;;;5057447;28;20230;-89
2023/06/11 07:13:21;;;;;;;0.30;0.30;;;;;;;;;;5057413;28;20215;-88
2023/06/11 07:15:47;;;;;;;0.30;0.30;;;;;;;;;;5039698;28;20199;-87
2023/06/11 07:18:13;;;;;;;0.30;0.30;;;;;;;;;;5058079;28;20183;-87
2023/06/11 07:20:39;;;;;;;0.30;0.30;;;;;;;;;;5057184;28;20179;-89
2023/06/11 07:23:05;;;;;;;0.30;0.30;;;;;;;;;;5057191;28;20199;-89
2023/06/11 07:25:31;;;;;;;0.30;0.30;;;;;;;;;;5057515;28;20234;-87
2023/06/11 07:28:03;;;;;;;0.30;0.30;;;;;;;;;;5079804;28;20194;-89
2023/06/11 07:30:29;;;;;;;0.30;0.30;;;;;;;;;;5080002;28;20187;-91
2023/06/11 07:32:56;;;;;;;0.30;0.30;;;;;;;;;;5079416;28;20229;-91
2023/06/11 07:35:22;;;;;;;0.30;0.30;;;;;;;;;;5068696;28;20186;-89
2023/06/11 07:37:49;;;;;;;0.30;0.30;;;;;;;;;;5055915;28;20199;-88
2023/06/11 07:40:15;;;;;;;0.30;0.30;;;;;;;;;;5055045;28;20242;-88
2023/06/11 07:42:45;;;;;;;0.30;0.30;;;;;;;;;;5036550;28;20662;-88
2023/06/11 07:45:11;;;;;;;0.33;0.33;;;;;;;;;;5055163;28;20171;-88
2023/06/11 07:47:37;;;;;;;0.30;0.30;;;;;;;;;;5054746;28;20187;-87
2023/06/11 07:50:04;;;;;;;0.30;0.30;;;;;;;;;;5054530;28;20175;-89
2023/06/11 07:52:30;;;;;;;0.30;0.30;;;;;;;;;;5035275;28;20195;-87
2023/06/11 07:54:56;;;;;;;0.30;0.30;;;;;;;;;;5054163;28;20215;-88
2023/06/11 07:57:22;;;;;;;0.30;0.30;;;;;;;;;;5054125;28;20171;-89
2023/06/11 07:59:48;;;;;;;0.30;0.30;;;;;;;;;;5054498;28;20182;-88
2023/06/11 08:02:17;;;;;;;0.30;0.30;;;;;;;;;;5053656;28;20206;-87
2023/06/11 08:04:43;;;;;;;0.40;0.40;;;;;;;;;;5054016;28;20186;-88
2023/06/11 08:07:09;;;;;;;0.40;0.40;;;;;;;;;;5054002;28;20242;-87
2023/06/11 08:09:35;;;;;;;0.20;0.20;;;;;;;;;;5054117;28;20171;-88
2023/06/11 08:12:02;;;;;;;0.30;0.30;;;;;;;;;;5053956;28;20205;-88
2023/06/11 08:14:28;;;;;;;0.30;0.30;;;;;;;;;;5054534;28;20171;-88
2023/06/11 08:16:54;;;;;;;0.30;0.30;;;;;;;;;;5054003;28;20253;-87
2023/06/11 08:19:20;;;;;;;0.37;0.37;;;;;;;;;;5054175;28;20182;-88
2023/06/11 08:21:47;;;;;;;0.40;0.40;;;;;;;;;;5059375;28;20183;-88
2023/06/11 08:24:13;;;;;;;0.40;0.40;;;;;;;;;;5060903;28;20199;-87
2023/06/11 08:26:39;;;;;;;0.30;0.30;;;;;;;;;;5054446;28;20684;-87
2023/06/11 08:29:05;;;;;;;0.30;0.30;;;;;;;;;;5053868;28;20641;-87
2023/06/11 08:31:32;;;;;;;0.30;0.30;;;;;;;;;;5054522;28;20179;-87
2023/06/11 08:33:58;;;;;;;0.30;0.30;;;;;;;;;;5053474;28;20195;-89
2023/06/11 08:36:26;;;;;;;0.30;0.30;;;;;;;;;;5054245;28;20229;-89
2023/06/11 08:38:52;;;;;;;0.40;0.40;;;;;;;;;;5054453;28;20675;-88
2023/06/11 08:41:18;;;;;;;0.30;0.30;;;;;;;;;;5053533;28;20186;-89
2023/06/11 08:43:44;;;;;;;0.40;0.40;;;;;;;;;;5053296;28;20191;-87
2023/06/11 08:46:14;;;;;;;0.50;0.50;;;;;;;;;;5053585;28;20566;-87
2023/06/11 08:48:42;;;;;;;0.30;0.30;;;;;;;;;;5054060;28;20172;-88
2023/06/11 08:51:09;;;;;;;0.30;0.30;;;;;;;;;;5053871;28;20183;-88
2023/06/11 08:53:36;;;;;;;0.30;0.30;;;;;;;;;;5053631;28;20743;-88
2023/06/11 08:56:02;;;;;;;0.40;0.40;;;;;;;;;;5053977;28;20175;-89
2023/06/11 08:58:30;;;;;;;0.30;0.30;;;;;;;;;;5053570;28;20175;-88
2023/06/11 09:00:56;;;;;;;0.30;0.30;;;;;;;;;;5053212;28;20183;-88
2023/06/11 09:03:22;;;;;;;0.30;0.30;;;;;;;;;;5055896;28;20589;-90
2023/06/11 09:05:48;;;;;;;0.40;0.40;;;;;;;;;;5068106;28;20313;-88
2023/06/11 09:08:14;;;;;;;0.30;0.30;;;;;;;;;;5054662;28;20168;-88
2023/06/11 09:10:50;;;;;;;0.50;0.50;;;;;;;;;;5054439;28;20179;-88
2023/06/11 09:13:17;;;;;;;0.33;0.33;;;;;;;;;;5054435;28;20207;-88
2023/06/11 09:15:46;;;;;;;0.40;0.40;;;;;;;;;;5054597;28;20187;-88
2023/06/11 09:18:12;;;;;;;0.30;0.30;;;;;;;;;;5065370;28;20182;-88
2023/06/11 09:20:38;;;;;;;0.40;0.40;;;;;;;;;;5066423;28;20183;-88
2023/06/11 09:23:04;;;;;;;0.40;0.40;;;;;;;;;;5065174;28;20219;-88
2023/06/11 09:25:32;;;;;;;0.33;0.33;;;;;;;;;;5052896;28;20590;-88
2023/06/11 09:28:05;;;;;;;0.40;0.40;;;;;;;;;;5053495;28;20178;-88
2023/06/11 09:30:31;;;;;;;0.30;0.30;;;;;;;;;;5053360;28;20186;-87
2023/06/11 09:32:57;;;;;;;0.20;0.20;;;;;;;;;;5053193;28;20203;-89
2023/06/11 09:35:23;;;;;;;0.43;0.43;;;;;;;;;;5053176;28;20206;-89
2023/06/11 09:37:53;;;;;;;0.50;0.50;;;;;;;;;;5055169;28;20175;-89
2023/06/11 09:40:20;;;;;;;0.30;0.30;;;;;;;;;;5056520;28;20206;-88
2023/06/11 09:42:50;;;;;;;0.40;0.40;;;;;;;;;;5053155;28;20203;-88
2023/06/11 09:45:18;;;;;;;0.40;0.40;;;;;;;;;;5052351;28;20256;-91
2023/06/11 09:47:45;;;;;;;0.40;0.40;;;;;;;;;;5052340;28;20590;-88
2023/06/11 09:50:15;;;;;;;0.50;0.50;;;;;;;;;;5052293;28;20694;-88
2023/06/11 09:52:42;;;;;;;0.40;0.40;;;;;;;;;;5052032;28;20294;-88
2023/06/11 09:55:09;;;;;;;0.30;0.30;;;;;;;;;;5052137;28;20171;-89
2023/06/11 09:57:36;;;;;;;0.40;0.40;;;;;;;;;;5052307;28;20183;-89
2023/06/11 10:00:03;;;;;;;0.40;0.40;;;;;;;;;;5051881;28;20182;-90
2023/06/11 10:02:29;;;;;;;0.30;0.30;;;;;;;;;;5051623;28;20203;-88
2023/06/11 10:04:55;;;;;;;0.40;0.40;;;;;;;;;;5053350;28;20314;-91
2023/06/11 10:07:23;;;;;;;0.40;0.40;;;;;;;;;;5067000;28;20306;-92
2023/06/11 10:09:49;;;;;;;0.40;0.40;;;;;;;;;;5077389;28;20174;-94
2023/06/11 10:12:15;;;;;;;0.47;0.47;;;;;;;;;;5076942;28;20182;-94
2023/06/11 10:14:42;;;;;;;0.40;0.40;;;;;;;;;;5076436;28;20191;-91
2023/06/11 10:17:08;;;;;;;0.43;0.43;;;;;;;;;;5056424;28;20175;-91
2023/06/11 10:19:38;;;;;;;0.40;0.40;;;;;;;;;;5056119;28;20226;-92
2023/06/11 10:22:04;;;;;;;0.40;0.40;;;;;;;;;;5055674;28;20178;-89
2023/06/11 10:24:30;;;;;;;0.33;0.33;;;;;;;;;;5055666;28;20630;-89
2023/06/11 10:27:12;;;;;;;0.30;0.30;;;;;;;;;;5055832;28;20305;-89
2023/06/11 10:29:47;;;;;;;0.40;0.40;;;;;;;;;;5055707;28;20193;-88
2023/06/11 10:32:17;;;;;;;0.50;0.50;;;;;;;;;;5055608;28;20289;-89
2023/06/11 10:34:43;;;;;;;0.40;0.40;;;;;;;;;;5055799;28;20518;-91
2023/06/11 10:37:10;;;;;;;0.40;0.40;;;;;;;;;;5055744;28;20179;-90
2023/06/11 10:39:36;;;;;;;0.40;0.40;;;;;;;;;;5055540;28;20182;-89
2023/06/11 10:42:05;;;;;;;0.50;0.50;;;;;;;;;;5055601;28;20179;-92
2023/06/11 10:44:31;;;;;;;0.40;0.40;;;;;;;;;;5055799;28;20232;-88
2023/06/11 10:47:00;;;;;;;0.30;0.30;;;;;;;;;;5057080;28;20682;-88
2023/06/11 10:49:26;;;;;;;0.37;0.37;;;;;;;;;;5055903;28;20641;-89
2023/06/11 10:51:53;;;;;;;0.30;0.30;;;;;;;;;;5055897;28;20236;-88
2023/06/11 10:54:26;;;;;;;0.30;0.30;;;;;;;;;;5054937;28;20282;-89
2023/06/11 10:56:52;;;;;;;0.30;0.30;;;;;;;;;;5055383;28;20186;-89
2023/06/11 10:59:18;;;;;;;0.40;0.40;;;;;;;;;;5055068;28;20626;-89
2023/06/11 11:01:45;;;;;;;0.40;0.40;;;;;;;;;;5054309;28;20214;-89
2023/06/11 11:04:11;;;;;;;0.40;0.40;;;;;;;;;;5053855;28;20278;-88
2023/06/11 11:06:39;;;;;;;0.43;0.43;;;;;;;;;;5055026;28;20297;-88
2023/06/11 11:09:05;;;;;;;0.30;0.30;;;;;;;;;;5055226;28;20633;-88
2023/06/11 11:11:33;;;;;;;0.50;0.50;;;;;;;;;;5055450;28;20203;-89
2023/06/11 11:14:00;;;;;;;0.40;0.40;;;;;;;;;;5054308;28;20199;-88
2023/06/11 11:16:26;;;;;;;0.50;0.50;;;;;;;;;;5055424;28;20183;-87
2023/06/11 11:18:52;;;;;;;0.50;0.50;;;;;;;;;;5054634;28;20190;-87
2023/06/11 11:21:19;;;;;;;0.37;0.37;;;;;;;;;;5054869;28;20273;-88
2023/06/11 11:23:49;;;;;;;0.50;0.50;;;;;;;;;;5054570;28;20210;-87
2023/06/11 11:26:15;;;;;;;0.30;0.30;;;;;;;;;;5053712;28;20218;-88
2023/06/11 11:28:41;;;;;;;0.40;0.40;;;;;;;;;;5054962;28;20630;-89
2023/06/11 11:31:08;;;;;;;0.40;0.40;;;;;;;;;;5055284;28;20183;-89
2023/06/11 11:33:35;;;;;;;0.40;0.40;;;;;;;;;;5054604;28;20202;-88
2023/06/11 11:36:02;;;;;;;0.40;0.40;;;;;;;;;;5036467;28;20179;-89
2023/06/11 11:38:33;;;;;;;0.50;0.50;;;;;;;;;;5055033;28;20179;-88
2023/06/11 11:40:59;;;;;;;0.47;0.47;;;;;;;;;;5054913;28;20202;-89
2023/06/11 11:43:25;;;;;;;0.40;0.40;;;;;;;;;;5054936;28;20203;-88
2023/06/11 11:45:51;;;;;;;0.33;0.33;;;;;;;;;;5054886;28;20203;-88
2023/06/11 11:48:17;;;;;;;0.40;0.40;;;;;;;;;;5054596;28;20198;-88
2023/06/11 11:50:45;;;;;;;0.40;0.40;;;;;;;;;;5059234;28;20175;-89
2023/06/11 11:53:15;;;;;;;0.47;0.47;;;;;;;;;;5056446;28;20692;-88
2023/06/11 11:55:45;;;;;;;0.50;0.50;;;;;;;;;;5057287;28;20254;-91
2023/06/11 11:58:12;;;;;;;0.60;0.60;;;;;;;;;;5062184;28;20186;-89
2023/06/11 12:00:46;;;;;;;0.40;0.40;;;;;;;;;;5059303;28;20192;-89
2023/06/11 12:03:12;;;;;;;0.60;0.60;;;;;;;;;;5057614;28;20195;-87
2023/06/11 12:05:38;;;;;;;0.40;0.40;;;;;;;;;;5059645;28;20215;-87
2023/06/11 12:08:08;;;;;;;0.50;0.50;;;;;;;;;;5058579;28;20266;-89
2023/06/11 12:10:34;;;;;;;0.60;0.60;;;;;;;;;;5059670;28;20580;-88
2023/06/11 12:13:01;;;;;;;0.47;0.47;;;;;;;;;;5053783;28;20190;-88
2023/06/11 12:15:27;;;;;;;0.40;0.40;;;;;;;;;;5054933;28;20240;-89
2023/06/11 12:17:53;;;;;;;0.50;0.50;;;;;;;;;;5055316;28;20252;-88
2023/06/11 12:20:22;;;;;;;0.40;0.40;;;;;;;;;;5054703;28;20179;-88
2023/06/11 12:22:49;;;;;;;0.50;0.50;;;;;;;;;;5054178;28;20222;-90
2023/06/11 12:25:15;;;;;;;0.50;0.50;;;;;;;;;;5036497;28;20190;-88
2023/06/11 12:27:43;;;;;;;0.50;0.50;;;;;;;;;;5055584;28;20225;-88
2023/06/11 12:30:09;;;;;;;0.50;0.50;;;;;;;;;;5054454;28;20186;-88
2023/06/11 12:32:35;;;;;;;0.63;0.63;;;;;;;;;;5054045;28;20187;-88
2023/06/11 12:35:02;;;;;;;0.50;0.50;;;;;;;;;;5053629;28;20183;-87
2023/06/11 12:37:28;;;;;;;0.40;0.40;;;;;;;;;;5054151;28;20195;-88
2023/06/11 12:39:54;;;;;;;0.50;0.50;;;;;;;;;;5054019;28;20197;-89
2023/06/11 12:42:20;;;;;;;0.50;0.50;;;;;;;;;;5054505;28;20206;-88
2023/06/11 12:44:47;;;;;;;0.40;0.40;;;;;;;;;;5056039;28;20298;-89
2023/06/11 12:47:13;;;;;;;0.40;0.40;;;;;;;;;;5037330;28;20215;-89
2023/06/11 12:49:39;;;;;;;0.40;0.40;;;;;;;;;;5055331;28;20179;-87
2023/06/11 12:52:06;;;;;;;0.50;0.50;;;;;;;;;;5054743;28;20179;-88
2023/06/11 12:54:32;;;;;;;0.47;0.47;;;;;;;;;;5054447;28;20175;-88
2023/06/11 12:56:59;;;;;;;0.60;0.60;;;;;;;;;;5052429;28;20225;-85
2023/06/11 12:59:25;;;;;;;0.30;0.30;;;;;;;;;;5052780;28;20187;-88
2023/06/11 13:01:51;;;;;;;0.50;0.50;;;;;;;;;;5054009;28;20326;-88
2023/06/11 13:04:17;;;;;;;0.50;0.50;;;;;;;;;;5053179;28;20171;-86
2023/06/11 13:06:45;;;;;;;0.50;0.50;;;;;;;;;;5060728;28;20209;-87
2023/06/11 13:09:11;;;;;;;0.50;0.50;;;;;;;;;;5038927;28;20218;-87
2023/06/11 13:11:37;;;;;;;0.27;0.27;;;;;;;;;;5069483;28;20224;-87
2023/06/11 13:14:03;;;;;;;0.33;0.33;;;;;;;;;;5072181;28;20255;-86
2023/06/11 13:16:30;;;;;;;0.50;0.50;;;;;;;;;;5084167;28;20258;-89
2023/06/11 13:18:59;;;;;;;0.40;0.40;;;;;;;;;;5080166;28;20284;-87
2023/06/11 13:21:26;;;;;;;0.37;0.37;;;;;;;;;;5077635;28;20178;-87
2023/06/11 13:23:52;;;;;;;0.40;0.40;;;;;;;;;;5076800;28;20207;-86
2023/06/11 13:26:19;;;;;;;0.30;0.30;;;;;;;;;;5077170;28;20222;-87
2023/06/11 13:28:45;;;;;;;0.40;0.40;;;;;;;;;;5076711;28;20167;-87
2023/06/11 13:31:11;;;;;;;0.30;0.30;;;;;;;;;;5068339;28;20221;-86
2023/06/11 13:33:37;;;;;;;0.30;0.30;;;;;;;;;;5055274;28;20865;-86
2023/06/11 13:36:04;;;;;;;0.50;0.50;;;;;;;;;;5055406;28;20228;-85
2023/06/11 13:38:30;;;;;;;0.40;0.40;;;;;;;;;;5063211;28;20175;-86
2023/06/11 13:40:56;;;;;;;0.40;0.40;;;;;;;;;;5070115;28;20171;-86
2023/06/11 13:43:22;;;;;;;0.37;0.37;;;;;;;;;;5076299;28;20188;-88
2023/06/11 13:45:49;;;;;;;0.33;0.33;;;;;;;;;;5075404;28;20230;-87
2023/06/11 13:48:18;;;;;;;0.30;0.30;;;;;;;;;;5076904;28;20186;-88
2023/06/11 13:50:45;;;;;;;0.43;0.43;;;;;;;;;;5083251;28;20185;-85
2023/06/11 13:53:11;;;;;;;0.33;0.33;;;;;;;;;;5076570;28;20672;-87
2023/06/11 13:55:38;;;;;;;0.40;0.40;;;;;;;;;;5080189;28;20225;-88
2023/06/11 13:58:05;;;;;;;0.50;0.50;;;;;;;;;;5073295;28;20179;-87
2023/06/11 14:00:31;;;;;;;0.43;0.43;;;;;;;;;;5077539;28;20692;-88
2023/06/11 14:02:57;;;;;;;0.50;0.50;;;;;;;;;;5074406;28;20194;-88
2023/06/11 14:05:23;;;;;;;0.50;0.50;;;;;;;;;;5078513;28;20186;-88
2023/06/11 14:07:49;;;;;;;0.40;0.40;;;;;;;;;;5083172;28;20305;-89
2023/06/11 14:10:15;;;;;;;0.40;0.40;;;;;;;;;;5080482;28;20191;-89
2023/06/11 14:12:41;;;;;;;0.50;0.50;;;;;;;;;;5071828;28;20187;-88
2023/06/11 14:15:07;;;;;;;0.40;0.40;;;;;;;;;;5083807;28;20544;-89
2023/06/11 14:17:39;;;;;;;0.50;0.50;;;;;;;;;;5085787;28;20159;-88
2023/06/11 14:20:05;;;;;;;0.40;0.40;;;;;;;;;;5073893;28;20184;-88
2023/06/11 14:22:31;;;;;;;0.30;0.30;;;;;;;;;;5070580;28;20192;-88
2023/06/11 14:25:00;;;;;;;0.60;0.60;;;;;;;;;;5069901;28;20167;-89
2023/06/11 14:27:27;;;;;;;0.40;0.40;;;;;;;;;;5069175;28;20211;-88
2023/06/11 14:29:52;;;;;;;0.40;0.40;;;;;;;;;;5062893;28;20685;-88
2023/06/11 14:32:18;;;;;;;0.33;0.33;;;;;;;;;;5059302;28;20237;-88
2023/06/11 14:34:44;;;;;;;0.50;0.50;;;;;;;;;;5072221;28;20175;-87
2023/06/11 14:37:11;;;;;;;0.50;0.50;;;;;;;;;;5072745;28;20201;-86
2023/06/11 14:39:37;;;;;;;0.40;0.40;;;;;;;;;;5073282;28;20633;-88
2023/06/11 14:42:04;;;;;;;0.40;0.40;;;;;;;;;;5073120;28;20243;-87